createdAt,value
2019-06-10T00:03:53.596Z,25.15
2019-06-10T00:08:58.143Z,25.12
2019-06-10T00:14:03.117Z,25.11
2019-06-10T00:19:10.146Z,25.10
2019-06-10T00:24:13.969Z,25.10
2019-06-10T00:29:18.164Z,25.10
2019-06-10T00:34:22.217Z,25.10
2019-06-10T00:39:26.240Z,25.13
2019-06-10T00:44:31.134Z,25.11
2019-06-10T00:49:35.289Z,25.11
2019-06-10T00:54:41.682Z,25.09
2019-06-10T00:59:45.428Z,25.10
2019-06-10T01:04:51.398Z,25.08
2019-06-10T01:09:55.559Z,25.09
2019-06-10T01:15:00.856Z,25.09
2019-06-10T01:20:06.094Z,24.98
2019-06-10T01:25:12.389Z,25.09
2019-06-10T01:30:22.106Z,25.06
2019-06-10T01:35:22.215Z,25.06
2019-06-10T01:40:26.343Z,25.05
2019-06-10T01:45:31.242Z,25.05
2019-06-10T01:50:35.458Z,25.03
2019-06-10T01:55:41.905Z,25.03
2019-06-10T02:00:55.067Z,25.04
2019-06-10T02:06:01.375Z,25.04
2019-06-10T02:11:05.111Z,25.04
2019-06-10T02:16:12.478Z,25.02
2019-06-10T02:21:17.645Z,25.03
2019-06-10T02:26:23.577Z,25.01
2019-06-10T02:31:35.501Z,25.01
2019-06-10T02:36:36.906Z,25.00
2019-06-10T02:41:39.810Z,25.00
2019-06-10T02:46:44.158Z,25.02
2019-06-10T02:51:48.374Z,25.01
2019-06-10T02:56:53.742Z,25.00
2019-06-10T03:01:58.233Z,25.00
2019-06-10T03:07:03.363Z,24.92
2019-06-10T03:12:07.764Z,24.80
2019-06-10T03:17:15.687Z,24.79
2019-06-10T03:22:20.621Z,24.77
2019-06-10T03:27:26.588Z,24.77
2019-06-10T03:32:40.061Z,24.71
2019-06-10T03:37:37.177Z,24.70
2019-06-10T03:42:42.758Z,24.70
2019-06-10T03:47:47.001Z,24.62
2019-06-10T03:52:52.441Z,24.68
2019-06-10T03:57:56.697Z,24.66
2019-06-10T04:03:02.730Z,24.66
2019-06-10T04:08:06.683Z,24.61
2019-06-10T04:13:13.070Z,24.59
2019-06-10T04:18:17.863Z,24.48
2019-06-10T04:23:23.857Z,24.57
2019-06-10T04:28:28.746Z,24.57
2019-06-10T04:33:33.120Z,24.55
2019-06-10T04:38:37.125Z,24.56
2019-06-10T04:43:43.175Z,24.58
2019-06-10T04:48:47.085Z,24.56
2019-06-10T04:53:52.437Z,24.56
2019-06-10T04:58:56.813Z,24.59
2019-06-10T05:04:02.978Z,24.59
2019-06-10T05:09:06.824Z,24.57
2019-06-10T05:14:13.169Z,24.51
2019-06-10T05:19:16.713Z,24.60
2019-06-10T05:24:25.172Z,24.62
2019-06-10T05:29:28.349Z,24.64
2019-06-10T05:34:34.629Z,24.64
2019-06-10T05:39:38.842Z,24.65
2019-06-10T05:44:43.159Z,24.65
2019-06-10T05:49:47.204Z,24.71
2019-06-10T05:54:52.113Z,24.74
2019-06-10T05:59:56.437Z,24.79
2019-06-10T06:05:02.574Z,24.77
2019-06-10T06:10:07.823Z,24.77
2019-06-10T06:15:12.972Z,24.84
2019-06-10T06:20:17.669Z,24.86
2019-06-10T06:25:24.075Z,24.89
2019-06-10T06:30:28.104Z,24.90
2019-06-10T06:35:35.130Z,24.91
2019-06-10T06:40:38.885Z,24.93
2019-06-10T06:45:43.206Z,24.95
2019-06-10T06:51:02.109Z,24.94
2019-06-10T06:55:55.860Z,24.94
2019-06-10T07:01:07.427Z,24.98
2019-06-10T07:06:06.000Z,24.16
2019-06-10T07:11:13.303Z,24.16
2019-06-10T07:16:23.046Z,24.14
2019-06-10T07:21:26.945Z,24.14
2019-06-10T07:26:34.069Z,24.13
2019-06-10T07:31:38.544Z,24.14
2019-06-10T07:36:45.175Z,24.20
2019-06-10T07:41:49.194Z,24.18
2019-06-10T07:46:53.615Z,24.05
2019-06-10T07:52:12.068Z,24.19
2019-06-10T07:57:03.730Z,24.21
2019-06-10T08:02:07.782Z,24.24
2019-06-10T08:07:12.517Z,24.25
2019-06-10T08:12:16.719Z,24.24
2019-06-10T08:17:22.419Z,24.25
2019-06-10T08:22:33.394Z,24.13
2019-06-10T08:27:33.552Z,24.22
2019-06-10T08:32:37.992Z,24.22
2019-06-10T08:37:43.234Z,24.19
2019-06-10T08:42:48.892Z,24.20
2019-06-10T08:47:54.196Z,24.18
2019-06-10T08:53:10.384Z,24.16
2019-06-10T08:58:05.058Z,24.19
2019-06-10T09:03:09.289Z,24.19
2019-06-10T09:08:13.497Z,24.16
2019-06-10T09:13:17.579Z,24.33
2019-06-10T09:18:23.257Z,24.33
2019-06-10T09:23:27.358Z,24.50
2019-06-10T09:28:32.787Z,24.57
2019-06-10T09:33:37.339Z,24.62
2019-06-10T09:38:55.867Z,24.60
2019-06-10T09:44:00.127Z,24.43
2019-06-10T09:49:06.173Z,24.43
2019-06-10T09:54:12.723Z,24.55
2019-06-10T09:59:19.452Z,24.52
2019-06-10T10:04:24.016Z,24.52
2019-06-10T10:09:57.043Z,24.43
2019-06-10T10:15:26.077Z,24.43
2019-06-10T10:20:14.124Z,24.56
2019-06-10T10:25:18.359Z,24.74
2019-06-10T10:30:29.036Z,24.66
2019-06-10T10:35:33.250Z,24.68
2019-06-10T10:40:37.395Z,24.56
2019-06-10T10:45:43.502Z,24.65
2019-06-10T10:50:47.522Z,24.61
2019-06-10T10:55:51.988Z,24.64
2019-06-10T11:00:57.936Z,24.69
2019-06-10T11:06:02.407Z,24.83
2019-06-10T11:11:06.589Z,24.74
2019-06-10T11:16:10.719Z,24.86
2019-06-10T11:21:15.205Z,24.86
2019-06-10T11:26:19.303Z,24.76
2019-06-10T11:31:23.351Z,24.76
2019-06-10T11:36:27.410Z,24.88
2019-06-10T11:41:32.463Z,24.87
2019-06-10T11:46:36.997Z,24.87
2019-06-10T11:51:41.056Z,24.96
2019-06-10T12:02:32.867Z,24.97
2019-06-10T12:07:42.862Z,25.05
2019-06-10T12:12:58.517Z,25.05
2019-06-10T12:18:09.675Z,25.00
2019-06-10T12:57:33.924Z,25.26
2019-06-10T13:02:38.680Z,25.26
2019-06-10T13:07:43.695Z,25.30
2019-06-10T13:12:48.956Z,25.36
2019-06-10T13:17:53.861Z,25.39
2019-06-10T14:06:33.349Z,25.57
2019-06-10T14:11:19.253Z,25.68
2019-06-10T14:16:24.655Z,25.75
2019-06-10T14:21:28.841Z,25.73
2019-06-10T14:26:40.550Z,25.73
2019-06-10T14:31:43.945Z,25.76
2019-06-10T14:36:44.518Z,25.76
2019-06-10T14:41:48.553Z,25.82
2019-06-10T14:46:53.070Z,25.87
2019-06-10T14:51:57.409Z,25.86
2019-06-10T14:57:02.715Z,25.86
2019-06-10T15:02:07.796Z,25.84
2019-06-10T15:07:13.533Z,25.91
2019-06-10T15:12:17.686Z,25.79
2019-06-10T15:49:03.322Z,25.83
2019-06-10T15:54:07.483Z,25.83
2019-06-10T15:59:13.289Z,25.91
2019-06-10T16:04:18.915Z,25.89
2019-06-10T16:09:23.174Z,25.89
2019-06-10T16:14:27.189Z,25.92
2019-06-10T16:19:32.865Z,25.92
2019-06-10T16:24:37.882Z,25.90
2019-06-10T16:29:42.423Z,25.90
2019-06-10T16:34:46.709Z,25.89
2019-06-10T16:39:52.504Z,25.88
2019-06-10T16:44:57.461Z,25.87
2019-06-10T16:50:03.250Z,25.90
2019-06-10T16:55:08.907Z,25.90
2019-06-10T17:00:14.553Z,25.90
2019-06-10T17:05:20.499Z,25.97
2019-06-10T17:10:28.152Z,25.94
2019-06-10T17:15:30.942Z,25.93
2019-06-10T17:20:35.132Z,25.93
2019-06-10T17:25:39.249Z,26.01
2019-06-10T17:30:43.292Z,25.95
2019-06-10T17:35:47.570Z,25.95
2019-06-10T17:40:52.433Z,25.95
2019-06-10T17:45:57.314Z,25.95
2019-06-10T17:51:01.531Z,25.95
2019-06-10T17:56:05.950Z,25.93
2019-06-10T18:01:12.748Z,25.96
2019-06-10T18:06:15.847Z,25.96
2019-06-10T18:11:19.966Z,25.96
2019-06-10T18:16:24.544Z,25.96
2019-06-10T18:21:28.639Z,25.96
2019-06-10T18:26:35.883Z,25.89
2019-06-10T18:31:38.666Z,25.98
2019-06-10T18:36:43.001Z,25.98
2019-06-10T18:41:47.167Z,26.06
2019-06-10T18:46:51.346Z,26.06
2019-06-10T18:51:55.372Z,26.09
2019-06-10T18:56:59.742Z,26.15
2019-06-10T19:02:06.367Z,26.14
2019-06-10T19:07:10.025Z,26.14
2019-06-10T19:12:14.075Z,26.11
2019-06-10T19:17:18.114Z,26.11
2019-06-10T19:22:22.598Z,26.04
2019-06-10T19:27:26.961Z,26.15
2019-06-10T19:32:33.699Z,26.08
2019-06-10T19:37:37.768Z,26.09
2019-06-10T19:42:44.514Z,26.06
2019-06-10T19:47:48.623Z,26.06
2019-06-10T19:52:52.708Z,26.05
2019-06-10T19:57:56.838Z,26.06
2019-06-10T20:03:02.915Z,26.06
2019-06-10T20:08:06.745Z,26.00
2019-06-10T20:13:10.885Z,25.95
2019-06-10T20:18:15.227Z,26.03
2019-06-10T20:23:19.396Z,26.01
2019-06-10T20:28:23.483Z,26.06
2019-06-10T20:33:38.430Z,26.02
2019-06-10T20:38:46.394Z,25.98
2019-06-10T20:43:48.029Z,25.93
2019-06-10T20:48:54.547Z,25.93
2019-06-10T20:53:58.075Z,25.88
2019-06-10T20:59:02.761Z,25.72
2019-06-10T21:04:07.217Z,25.72
2019-06-10T21:09:13.325Z,25.72
2019-06-10T21:14:17.013Z,25.75
2019-06-10T21:19:23.265Z,25.63
2019-06-10T21:24:26.867Z,25.65
2019-06-10T21:29:32.307Z,25.79
2019-06-10T21:34:36.412Z,25.59
2019-06-10T21:39:44.198Z,25.66
2019-06-10T21:44:46.213Z,25.66
2019-06-10T21:49:53.101Z,25.80
2019-06-10T21:54:56.751Z,25.77
2019-06-10T22:00:03.760Z,25.75
2019-06-10T22:05:08.951Z,25.75
2019-06-10T22:10:13.534Z,25.69
2019-06-10T22:15:18.432Z,25.69
2019-06-10T22:20:23.240Z,25.69
2019-06-10T22:25:27.308Z,25.69
2019-06-10T22:30:32.102Z,25.67
2019-06-10T22:35:36.489Z,25.69
2019-06-10T22:40:42.632Z,25.58
2019-06-10T22:45:47.408Z,25.69
2019-06-10T22:50:51.687Z,25.69
2019-06-10T22:55:57.738Z,25.69
2019-06-10T23:01:04.303Z,25.69
2019-06-10T23:06:07.914Z,25.68
2019-06-10T23:11:12.997Z,25.58
2019-06-10T23:16:17.385Z,25.69
2019-06-10T23:21:21.666Z,25.68
2019-06-10T23:26:25.957Z,25.68
2019-06-10T23:31:32.364Z,25.69
2019-06-10T23:36:36.095Z,25.61
2019-06-10T23:41:40.261Z,25.57
2019-06-10T23:46:44.450Z,25.68
2019-06-10T23:51:49.230Z,25.68
2019-06-10T23:56:54.399Z,25.62
